createdAt,value
2018-09-17T00:00:17.400Z,0
2018-09-17T00:00:57.692Z,0
2018-09-17T00:01:38.139Z,0
2018-09-17T00:02:18.552Z,0
2018-09-17T00:02:58.933Z,0
2018-09-17T00:03:39.456Z,0
2018-09-17T00:04:19.771Z,0
2018-09-17T00:05:00.195Z,0
2018-09-17T00:05:40.671Z,0
2018-09-17T00:06:20.912Z,0
2018-09-17T00:07:01.395Z,0
2018-09-17T00:07:41.782Z,0
2018-09-17T00:08:22.169Z,0
2018-09-17T00:09:02.647Z,0
2018-09-17T00:09:43.055Z,0
2018-09-17T00:10:23.491Z,0
2018-09-17T00:11:03.919Z,0
2018-09-17T00:11:44.298Z,0
2018-09-17T00:12:24.733Z,0
2018-09-17T00:13:05.073Z,0
2018-09-17T00:13:45.519Z,0
2018-09-17T00:14:25.989Z,0
2018-09-17T00:15:06.412Z,0
2018-09-17T00:15:46.913Z,0
2018-09-17T00:16:27.283Z,0
2018-09-17T00:17:07.657Z,0
2018-09-17T00:17:48.013Z,0
2018-09-17T00:18:28.412Z,0
2018-09-17T00:19:08.860Z,0
2018-09-17T00:19:49.292Z,0
2018-09-17T00:20:29.634Z,0
2018-09-17T00:21:10.093Z,0
2018-09-17T00:21:50.520Z,0
2018-09-17T00:22:30.950Z,0
2018-09-17T00:23:11.262Z,0
2018-09-17T00:23:51.699Z,0
2018-09-17T00:24:32.010Z,0
2018-09-17T00:25:12.487Z,0
2018-09-17T00:25:52.927Z,0
2018-09-17T00:26:33.244Z,0
2018-09-17T00:27:13.732Z,0
2018-09-17T00:27:54.185Z,0
2018-09-17T00:28:34.636Z,0
2018-09-17T00:29:15.079Z,0
2018-09-17T00:29:55.380Z,0
2018-09-17T00:30:35.819Z,0
2018-09-17T00:31:16.223Z,0
2018-09-17T00:31:56.622Z,0
2018-09-17T00:32:37.004Z,0
2018-09-17T00:33:17.440Z,0
2018-09-17T00:33:57.851Z,0
2018-09-17T00:34:38.303Z,0
2018-09-17T00:35:18.663Z,0
2018-09-17T00:35:59.090Z,0
2018-09-17T00:36:39.474Z,0
2018-09-17T00:37:19.891Z,0
2018-09-17T00:38:00.300Z,0
2018-09-17T00:38:40.691Z,0
2018-09-17T00:39:21.090Z,0
2018-09-17T00:40:01.508Z,0
2018-09-17T00:40:41.954Z,0
2018-09-17T00:41:22.287Z,0
2018-09-17T00:42:02.768Z,0
2018-09-17T00:42:43.094Z,0
2018-09-17T00:43:23.480Z,0
2018-09-17T00:44:03.885Z,0
2018-09-17T00:44:44.389Z,0
2018-09-17T00:45:24.714Z,0
2018-09-17T00:46:05.154Z,0
2018-09-17T00:46:45.733Z,0
2018-09-17T00:47:26.154Z,0
2018-09-17T00:48:06.552Z,0
2018-09-17T00:48:46.965Z,0
2018-09-17T00:49:27.450Z,0
2018-09-17T00:50:07.888Z,0
2018-09-17T00:50:48.296Z,0
2018-09-17T00:51:28.695Z,0
2018-09-17T00:52:09.003Z,0
2018-09-17T00:52:49.602Z,0
2018-09-17T00:53:29.945Z,0
2018-09-17T00:54:10.325Z,0
2018-09-17T00:54:50.715Z,0
2018-09-17T00:55:31.104Z,0
2018-09-17T00:56:11.562Z,0
2018-09-17T00:56:51.869Z,0
2018-09-17T00:57:32.316Z,0
2018-09-17T00:58:12.752Z,0
2018-09-17T00:58:53.126Z,0
2018-09-17T00:59:33.591Z,0
2018-09-17T01:00:13.974Z,0
2018-09-17T01:00:54.317Z,0
2018-09-17T01:01:34.806Z,0
2018-09-17T01:02:15.113Z,0
2018-09-17T01:02:55.555Z,0
2018-09-17T01:03:36.040Z,0
2018-09-17T01:04:16.504Z,0
2018-09-17T01:04:56.862Z,0
2018-09-17T01:05:37.217Z,0
2018-09-17T01:06:17.709Z,0
2018-09-17T01:06:58.068Z,0
2018-09-17T01:07:38.425Z,0
2018-09-17T01:08:18.897Z,0
2018-09-17T01:08:59.286Z,0
2018-09-17T01:09:39.745Z,0
2018-09-17T01:10:20.155Z,0
2018-09-17T01:11:00.529Z,0
2018-09-17T01:11:40.884Z,0
2018-09-17T01:12:21.331Z,0
2018-09-17T01:13:01.772Z,0
2018-09-17T01:13:42.213Z,0
2018-09-17T01:14:22.653Z,0
2018-09-17T01:15:03.059Z,0
2018-09-17T01:15:43.355Z,0
2018-09-17T01:16:23.898Z,0
2018-09-17T01:17:04.261Z,0
2018-09-17T01:17:44.737Z,0
2018-09-17T01:18:26.714Z,0
2018-09-17T01:19:07.100Z,0
2018-09-17T01:19:47.548Z,0
2018-09-17T01:20:27.906Z,0
2018-09-17T01:21:08.385Z,0
2018-09-17T01:21:48.730Z,0
2018-09-17T01:22:29.157Z,0
2018-09-17T01:23:09.509Z,0
2018-09-17T01:23:49.919Z,0
2018-09-17T01:24:30.343Z,0
2018-09-17T01:25:10.835Z,0
2018-09-17T01:25:51.211Z,0
2018-09-17T01:26:31.559Z,0
2018-09-17T01:27:12.054Z,0
2018-09-17T01:27:52.570Z,0
2018-09-17T01:28:32.948Z,0
2018-09-17T01:29:13.412Z,0
2018-09-17T01:29:53.779Z,0
2018-09-17T01:30:34.306Z,0
2018-09-17T01:31:14.711Z,0
2018-09-17T01:31:55.118Z,0
2018-09-17T01:32:35.436Z,0
2018-09-17T01:33:15.985Z,0
2018-09-17T01:33:56.377Z,0
2018-09-17T01:34:36.812Z,0
2018-09-17T01:35:17.177Z,0
2018-09-17T01:35:57.635Z,0
2018-09-17T01:36:38.002Z,0
2018-09-17T01:37:18.430Z,0
2018-09-17T01:37:58.873Z,0
2018-09-17T01:38:39.309Z,0
2018-09-17T01:39:19.747Z,0
2018-09-17T01:40:00.112Z,0
2018-09-17T01:40:40.551Z,0
2018-09-17T01:41:21.019Z,0
2018-09-17T01:42:01.457Z,0
2018-09-17T01:42:41.820Z,0
2018-09-17T01:43:22.148Z,0
2018-09-17T01:44:02.633Z,0
2018-09-17T01:44:43.038Z,0
2018-09-17T01:45:23.472Z,0
2018-09-17T01:46:03.950Z,0
2018-09-17T01:46:44.480Z,0
2018-09-17T01:47:24.947Z,0
2018-09-17T01:48:05.250Z,0
2018-09-17T01:48:45.727Z,0
2018-09-17T01:49:26.114Z,0
2018-09-17T01:50:06.544Z,0
2018-09-17T01:50:46.905Z,0
2018-09-17T01:51:27.309Z,0
2018-09-17T01:52:07.759Z,0
2018-09-17T01:52:48.213Z,0
2018-09-17T01:53:28.676Z,0
2018-09-17T01:54:09.113Z,0
2018-09-17T01:54:49.542Z,0
2018-09-17T01:55:30.044Z,0
2018-09-17T01:56:10.395Z,0
2018-09-17T01:56:50.734Z,0
2018-09-17T01:57:31.102Z,0
2018-09-17T01:58:11.511Z,0
2018-09-17T01:58:51.971Z,0
2018-09-17T01:59:32.384Z,0
2018-09-17T02:00:12.856Z,0
2018-09-17T02:00:53.283Z,0
2018-09-17T02:01:33.575Z,0
2018-09-17T02:02:14.013Z,0
2018-09-17T02:02:54.442Z,0
2018-09-17T02:03:34.849Z,0
2018-09-17T02:04:15.276Z,0
2018-09-17T02:04:55.671Z,0
2018-09-17T02:05:36.681Z,0
2018-09-17T02:06:23.797Z,0
2018-09-17T02:07:04.149Z,0
2018-09-17T02:07:44.605Z,0
2018-09-17T02:08:25.028Z,0
2018-09-17T02:09:05.443Z,0
2018-09-17T02:09:45.861Z,0
2018-09-17T02:10:26.361Z,0
2018-09-17T02:11:06.557Z,0
2018-09-17T02:11:46.935Z,0
2018-09-17T02:12:27.380Z,0
2018-09-17T02:13:07.961Z,0
2018-09-17T02:13:48.279Z,0
2018-09-17T02:14:28.680Z,0
2018-09-17T02:15:09.069Z,0
2018-09-17T02:15:49.445Z,0
2018-09-17T02:16:29.844Z,0
2018-09-17T02:17:10.299Z,0
2018-09-17T02:17:50.827Z,0
2018-09-17T02:18:31.140Z,0
2018-09-17T02:19:11.573Z,0
2018-09-17T02:19:51.946Z,0
2018-09-17T02:20:32.366Z,0
2018-09-17T02:21:12.729Z,0
2018-09-17T02:21:53.237Z,0
2018-09-17T02:22:33.415Z,0
2018-09-17T02:23:13.893Z,0
2018-09-17T02:23:54.375Z,0
2018-09-17T02:24:34.827Z,0
2018-09-17T02:25:15.247Z,0
2018-09-17T02:25:55.622Z,0
2018-09-17T02:26:36.082Z,0
2018-09-17T02:27:16.535Z,0
2018-09-17T02:27:56.897Z,0
2018-09-17T02:28:37.291Z,0
2018-09-17T02:29:17.733Z,0
2018-09-17T02:29:58.160Z,0
2018-09-17T02:30:45.245Z,0
2018-09-17T02:31:25.692Z,0
2018-09-17T02:32:06.132Z,0
2018-09-17T02:32:46.457Z,0
2018-09-17T02:33:26.913Z,0
2018-09-17T02:34:07.325Z,0
2018-09-17T02:34:47.796Z,0
2018-09-17T02:35:28.078Z,0
2018-09-17T02:36:08.466Z,0
2018-09-17T02:36:48.941Z,0
2018-09-17T02:37:29.430Z,0
2018-09-17T02:38:09.798Z,0
2018-09-17T02:38:50.263Z,0
2018-09-17T02:39:30.744Z,0
2018-09-17T02:40:11.215Z,0
2018-09-17T02:40:51.547Z,0
2018-09-17T02:41:31.914Z,0
2018-09-17T02:42:12.341Z,0
2018-09-17T02:42:52.826Z,0
2018-09-17T02:43:33.223Z,0
2018-09-17T02:44:13.591Z,0
2018-09-17T02:44:54.076Z,0
2018-09-17T02:45:34.791Z,0
2018-09-17T02:46:15.631Z,0
2018-09-17T02:46:55.987Z,0
2018-09-17T02:47:36.403Z,0
2018-09-17T02:48:16.788Z,0
2018-09-17T02:48:57.220Z,0
2018-09-17T02:49:37.641Z,0
2018-09-17T02:50:18.031Z,0
2018-09-17T02:50:58.491Z,0
2018-09-17T02:51:38.907Z,0
2018-09-17T02:52:19.288Z,0
2018-09-17T02:52:59.696Z,0
2018-09-17T02:53:40.216Z,0
2018-09-17T02:54:20.555Z,0
2018-09-17T02:55:01.017Z,0
2018-09-17T02:55:41.234Z,0
2018-09-17T02:56:21.704Z,0
2018-09-17T02:57:02.094Z,0
2018-09-17T02:57:42.475Z,0
2018-09-17T02:58:22.917Z,0
2018-09-17T02:59:03.370Z,0
2018-09-17T02:59:43.672Z,0
2018-09-17T03:00:24.062Z,0
2018-09-17T03:01:04.442Z,0
2018-09-17T03:01:44.844Z,0
2018-09-17T03:02:25.250Z,0
2018-09-17T03:03:05.710Z,0
2018-09-17T03:03:46.094Z,0
2018-09-17T03:04:26.531Z,0
2018-09-17T03:05:06.930Z,0
2018-09-17T03:05:47.405Z,0
2018-09-17T03:06:27.797Z,0
2018-09-17T03:07:08.216Z,0
2018-09-17T03:07:48.589Z,0
2018-09-17T03:08:28.976Z,0
2018-09-17T03:09:09.550Z,0
2018-09-17T03:09:49.950Z,0
2018-09-17T03:10:30.427Z,0
2018-09-17T03:11:10.849Z,0
2018-09-17T03:11:51.223Z,0
2018-09-17T03:12:31.678Z,0
2018-09-17T03:13:11.999Z,0
2018-09-17T03:13:52.420Z,0
2018-09-17T03:14:32.841Z,0
2018-09-17T03:15:13.289Z,0
2018-09-17T03:15:53.699Z,0
2018-09-17T03:16:34.111Z,0
2018-09-17T03:17:14.381Z,0
2018-09-17T03:17:54.980Z,0
2018-09-17T03:18:35.425Z,0
2018-09-17T03:19:15.864Z,0
2018-09-17T03:19:56.191Z,0
2018-09-17T03:20:36.657Z,0
2018-09-17T03:21:17.045Z,0
2018-09-17T03:21:57.607Z,0
2018-09-17T03:22:37.829Z,0
2018-09-17T03:23:18.383Z,0
2018-09-17T03:23:58.716Z,0
2018-09-17T03:24:39.263Z,0
2018-09-17T03:25:19.562Z,0
2018-09-17T03:25:59.986Z,0
2018-09-17T03:26:40.565Z,0
2018-09-17T03:27:20.996Z,0
2018-09-17T03:28:01.425Z,0
2018-09-17T03:28:41.848Z,0
2018-09-17T03:29:22.306Z,0
2018-09-17T03:30:02.706Z,0
2018-09-17T03:30:43.107Z,0
2018-09-17T03:31:23.679Z,0
2018-09-17T03:32:04.073Z,0
2018-09-17T03:32:44.453Z,0
2018-09-17T03:33:24.816Z,0
2018-09-17T03:34:05.185Z,0
2018-09-17T03:34:45.575Z,0
2018-09-17T03:35:26.006Z,0
2018-09-17T03:36:06.395Z,0
2018-09-17T03:36:46.909Z,0
2018-09-17T03:37:27.328Z,0
2018-09-17T03:38:07.746Z,0
2018-09-17T03:38:48.117Z,0
2018-09-17T03:39:28.513Z,0
2018-09-17T03:40:08.886Z,0
2018-09-17T03:40:49.397Z,0
2018-09-17T03:41:29.777Z,0
2018-09-17T03:42:10.199Z,0
2018-09-17T03:42:50.701Z,0
2018-09-17T03:43:31.013Z,0
2018-09-17T03:44:11.487Z,0
2018-09-17T03:44:51.834Z,0
2018-09-17T03:45:32.271Z,0
2018-09-17T03:46:12.749Z,0
2018-09-17T03:46:53.186Z,0
2018-09-17T03:47:33.440Z,0
2018-09-17T03:48:13.889Z,0
2018-09-17T03:48:54.303Z,0
2018-09-17T03:49:34.718Z,0
2018-09-17T03:50:15.094Z,0
2018-09-17T03:50:55.556Z,0
2018-09-17T03:51:35.932Z,0
2018-09-17T03:52:16.333Z,0
2018-09-17T03:52:56.712Z,0
2018-09-17T03:53:37.157Z,0
2018-09-17T03:54:17.553Z,0
2018-09-17T03:54:57.952Z,0
2018-09-17T03:55:38.440Z,0
2018-09-17T03:56:18.784Z,0
2018-09-17T03:56:59.178Z,0
2018-09-17T03:57:39.603Z,0
2018-09-17T03:58:19.977Z,0
2018-09-17T03:59:00.394Z,0
2018-09-17T03:59:40.761Z,0
2018-09-17T04:00:21.137Z,0
2018-09-17T04:01:01.582Z,0
2018-09-17T04:01:41.987Z,0
2018-09-17T04:02:22.294Z,0
2018-09-17T04:03:02.729Z,0
2018-09-17T04:03:43.153Z,0
2018-09-17T04:04:23.482Z,0
2018-09-17T04:05:18.762Z,0
2018-09-17T04:05:59.128Z,0
2018-09-17T04:06:39.604Z,0
2018-09-17T04:07:20.056Z,0
2018-09-17T04:08:00.450Z,0
2018-09-17T04:08:40.809Z,0
2018-09-17T04:09:21.212Z,0
2018-09-17T04:10:01.645Z,0
2018-09-17T04:12:15.692Z,0
2018-09-17T04:12:56.186Z,0
2018-09-17T04:13:36.572Z,0
2018-09-17T04:14:17.069Z,0
2018-09-17T04:14:57.594Z,0
2018-09-17T04:15:38.115Z,0
2018-09-17T04:16:18.905Z,0
2018-09-17T04:16:59.333Z,0
2018-09-17T04:17:39.704Z,0
2018-09-17T04:18:20.178Z,0
2018-09-17T04:19:00.615Z,0
2018-09-17T04:19:40.927Z,0
2018-09-17T04:20:21.389Z,0
2018-09-17T04:21:01.779Z,0
2018-09-17T04:21:42.171Z,0
2018-09-17T04:22:22.640Z,0
2018-09-17T04:23:03.079Z,0
2018-09-17T04:23:43.420Z,0
2018-09-17T04:24:23.978Z,0
2018-09-17T04:25:04.416Z,0
2018-09-17T04:25:44.722Z,0
2018-09-17T04:26:25.175Z,0
2018-09-17T04:27:05.546Z,0
2018-09-17T05:06:50.744Z,96
2018-09-17T05:07:51.310Z,104
2018-09-17T05:08:44.918Z,108
2018-09-17T05:09:43.266Z,116
2018-09-17T05:10:36.674Z,124
2018-09-17T05:11:29.467Z,128
2018-09-17T05:12:22.387Z,136
2018-09-17T05:13:16.444Z,144
2018-09-17T05:14:09.201Z,160
2018-09-17T05:15:02.290Z,172
2018-09-17T05:15:55.726Z,192
2018-09-17T05:17:13.793Z,216
2018-09-17T05:18:22.992Z,256
2018-09-17T05:19:23.823Z,292
2018-09-17T05:37:16.262Z,1096
2018-09-17T05:38:19.726Z,1148
2018-09-17T05:51:56.464Z,1916
2018-09-17T05:52:49.171Z,1960
2018-09-17T06:14:33.334Z,5388
2018-09-17T06:15:30.091Z,5320
2018-09-17T06:18:08.931Z,5520
2018-09-17T06:18:51.666Z,5576
2018-09-17T06:19:36.396Z,5624
2018-09-17T06:20:17.142Z,5824
2018-09-17T06:20:57.762Z,5844
2018-09-17T06:21:39.039Z,6192
2018-09-17T06:22:19.354Z,6112
2018-09-17T06:22:59.980Z,6204
2018-09-17T06:23:40.508Z,6144
2018-09-17T06:24:21.406Z,6248
2018-09-17T06:25:01.755Z,6648
2018-09-17T06:25:43.995Z,7076
2018-09-17T06:26:25.361Z,7308
2018-09-17T06:27:05.844Z,7420
2018-09-17T06:27:47.014Z,7624
2018-09-17T06:28:28.049Z,7864
2018-09-17T06:29:08.620Z,7972
2018-09-17T06:29:49.486Z,8164
2018-09-17T06:30:30.177Z,8412
2018-09-17T06:31:11.893Z,8364
2018-09-17T06:31:55.841Z,8632
2018-09-17T06:32:36.530Z,9000
2018-09-17T06:33:18.386Z,9376
2018-09-17T06:33:58.176Z,9508
2018-09-17T06:34:38.605Z,9516
2018-09-17T06:35:18.987Z,9740
2018-09-17T06:35:59.706Z,9832
2018-09-17T06:36:40.107Z,9868
2018-09-17T06:37:20.425Z,9864
2018-09-17T06:38:03.728Z,10536
2018-09-17T06:52:21.291Z,12628
2018-09-17T06:53:01.823Z,13068
2018-09-17T06:53:42.275Z,13156
2018-09-17T06:54:22.879Z,12892
2018-09-17T06:55:03.436Z,12620
2018-09-17T06:55:43.858Z,12400
2018-09-17T06:56:24.425Z,12460
2018-09-17T06:57:04.714Z,12388
2018-09-17T06:57:45.252Z,12344
2018-09-17T06:58:25.805Z,12440
2018-09-17T06:59:06.202Z,12116
2018-09-17T07:01:33.056Z,10520
2018-09-17T07:02:10.944Z,10020
2018-09-17T07:02:51.445Z,9772
2018-09-17T07:03:32.143Z,9368
2018-09-17T07:04:12.907Z,9144
2018-09-17T07:04:53.442Z,8936
2018-09-17T07:05:33.930Z,8960
2018-09-17T07:06:14.601Z,8552
2018-09-17T07:06:54.921Z,7868
2018-09-17T07:07:35.391Z,7240
2018-09-17T07:08:15.913Z,6740
2018-09-17T07:08:56.661Z,7020
2018-09-17T07:09:37.105Z,7308
2018-09-17T07:10:17.379Z,7772
2018-09-17T07:10:59.480Z,8248
2018-09-17T07:11:39.138Z,8452
2018-09-17T07:12:20.365Z,8480
2018-09-17T07:13:00.733Z,8276
2018-09-17T07:13:43.363Z,8288
2018-09-17T07:14:23.274Z,8076
2018-09-17T07:15:04.096Z,7712
2018-09-17T07:15:45.978Z,7380
2018-09-17T07:16:26.943Z,7164
2018-09-17T07:17:07.808Z,7116
2018-09-17T07:17:48.410Z,7164
2018-09-17T07:18:29.872Z,7000
2018-09-17T07:19:10.338Z,6720
2018-09-17T07:19:51.974Z,6600
2018-09-17T07:20:33.484Z,6636
2018-09-17T07:23:05.498Z,6492
2018-09-17T07:25:51.950Z,7440
2018-09-17T07:29:06.885Z,6132
2018-09-17T07:32:42.233Z,4816
2018-09-17T07:33:44.506Z,4688
2018-09-17T07:34:43.981Z,4720
2018-09-17T07:35:40.139Z,4708
2018-09-17T07:36:36.387Z,4340
2018-09-17T07:37:31.261Z,3984
2018-09-17T07:38:25.388Z,3832
2018-09-17T07:39:21.551Z,3704
2018-09-17T07:40:20.395Z,3616
2018-09-17T07:41:14.655Z,3524
2018-09-17T07:42:06.632Z,3416
2018-09-17T07:43:04.929Z,3280
2018-09-17T07:44:11.846Z,3132
2018-09-17T07:47:12.428Z,2792
2018-09-17T07:48:08.062Z,2684
2018-09-17T07:49:02.194Z,2620
2018-09-17T07:49:56.883Z,2548
2018-09-17T07:53:36.727Z,2388
2018-09-17T07:54:17.384Z,2372
2018-09-17T07:54:59.097Z,2340
2018-09-17T07:55:39.085Z,2320
2018-09-17T07:56:20.183Z,2312
2018-09-17T07:57:01.342Z,2296
2018-09-17T07:59:47.150Z,2264
2018-09-17T08:00:42.752Z,2252
2018-09-17T08:01:46.318Z,2228
2018-09-17T08:02:49.103Z,2212
2018-09-17T08:03:47.455Z,2204
2018-09-17T08:04:44.720Z,2212
2018-09-17T08:05:48.737Z,2256
2018-09-17T08:06:43.169Z,2260
2018-09-17T08:07:38.117Z,2268
2018-09-17T08:08:32.992Z,2272
2018-09-17T08:09:29.173Z,2308
2018-09-17T08:10:21.510Z,2344
2018-09-17T08:11:16.190Z,2372
2018-09-17T08:12:09.918Z,2356
2018-09-17T08:13:04.054Z,2328
2018-09-17T08:13:59.804Z,2320
2018-09-17T08:14:55.742Z,2308
2018-09-17T08:15:55.489Z,2308
2018-09-17T08:16:49.292Z,2304
2018-09-17T08:20:45.204Z,2252
2018-09-17T08:21:39.783Z,2228
2018-09-17T08:22:32.295Z,2268
2018-09-17T08:23:37.354Z,2272
2018-09-17T08:24:32.170Z,2300
2018-09-17T08:25:27.655Z,2348
2018-09-17T08:26:25.629Z,2360
2018-09-17T08:27:20.392Z,2348
2018-09-17T08:28:13.725Z,2384
2018-09-17T08:31:48.640Z,2388
2018-09-17T08:32:51.073Z,2368
2018-09-17T08:33:45.723Z,2332
2018-09-17T08:34:39.910Z,2340
2018-09-17T08:35:33.344Z,2328
2018-09-17T08:36:28.208Z,2288
2018-09-17T08:37:21.690Z,2272
2018-09-17T08:38:15.365Z,2264
2018-09-17T08:39:07.783Z,2248
2018-09-17T08:40:03.093Z,2228
2018-09-17T08:40:56.891Z,2204
2018-09-17T08:41:53.772Z,2200
2018-09-17T08:42:51.762Z,2192
2018-09-17T08:43:51.238Z,2208
2018-09-17T08:44:50.577Z,2192
2018-09-17T08:45:51.738Z,2164
2018-09-17T08:46:49.148Z,2136
2018-09-17T08:47:57.024Z,2192
2018-09-17T08:48:56.185Z,2192
2018-09-17T08:55:45.994Z,2452
2018-09-17T08:56:26.770Z,2452
2018-09-17T08:57:08.146Z,2476
2018-09-17T08:57:49.325Z,2516
2018-09-17T08:58:29.882Z,2524
2018-09-17T08:59:10.343Z,2540
2018-09-17T08:59:51.177Z,2516
2018-09-17T09:00:46.678Z,2536
2018-09-17T09:01:28.290Z,2576
2018-09-17T09:02:09.618Z,2592
2018-09-17T09:02:50.122Z,2596
2018-09-17T09:03:31.063Z,2572
2018-09-17T09:04:11.732Z,2536
2018-09-17T09:04:54.410Z,2492
2018-09-17T09:05:34.524Z,2464
2018-09-17T09:06:15.529Z,2392
2018-09-17T09:06:56.079Z,2404
2018-09-17T09:07:36.808Z,2348
2018-09-17T09:08:17.680Z,2348
2018-09-17T09:08:58.193Z,2336
2018-09-17T09:09:38.804Z,2320
2018-09-17T09:10:19.392Z,2356
2018-09-17T09:11:00.064Z,2328
2018-09-17T09:11:40.767Z,2348
2018-09-17T09:12:22.362Z,2320
2018-09-17T09:13:03.983Z,2316
2018-09-17T09:13:46.069Z,2300
2018-09-17T09:14:26.784Z,2312
2018-09-17T09:15:10.621Z,2300
2018-09-17T09:15:52.256Z,2280
2018-09-17T09:16:34.037Z,2268
2018-09-17T09:17:14.585Z,2284
2018-09-17T09:17:55.844Z,2264
2018-09-17T09:18:36.437Z,2260
2018-09-17T09:19:17.254Z,2256
2018-09-17T09:20:03.724Z,2252
2018-09-17T09:20:45.573Z,2240
2018-09-17T09:21:25.932Z,2240
2018-09-17T09:22:10.560Z,2224
2018-09-17T09:22:51.075Z,2188
2018-09-17T09:23:32.636Z,2204
2018-09-17T09:24:14.064Z,2156
2018-09-17T09:24:55.033Z,2132
2018-09-17T09:25:36.340Z,2160
2018-09-17T09:26:17.439Z,2180
2018-09-17T09:26:58.787Z,2136
2018-09-17T09:27:42.136Z,2092
2018-09-17T09:28:27.024Z,2112
2018-09-17T09:29:07.838Z,2132
2018-09-17T09:29:49.274Z,2140
2018-09-17T09:30:29.941Z,2144
2018-09-17T09:31:11.891Z,2168
2018-09-17T09:31:52.613Z,2176
2018-09-17T09:32:34.988Z,2192
2018-09-17T09:33:17.703Z,2184
2018-09-17T09:38:05.172Z,2200
2018-09-17T09:39:12.514Z,2188
2018-09-17T09:40:23.619Z,2168
2018-09-17T09:41:23.810Z,2148
2018-09-17T09:42:29.277Z,2140
2018-09-17T09:43:48.297Z,2148
2018-09-17T09:45:34.823Z,2160
2018-09-17T09:46:44.435Z,2160
2018-09-17T09:47:47.626Z,2164
2018-09-17T09:48:52.882Z,2200
2018-09-17T10:02:26.794Z,1908
2018-09-17T10:03:22.678Z,1884
2018-09-17T10:04:27.496Z,1852
2018-09-17T10:07:48.957Z,1748
2018-09-17T10:08:52.703Z,1740
2018-09-17T10:10:01.489Z,1724
2018-09-17T10:19:08.821Z,1732
2018-09-17T10:19:52.709Z,1752
2018-09-17T10:20:33.910Z,1776
2018-09-17T10:21:13.945Z,1792
2018-09-17T10:21:54.605Z,1816
2018-09-17T10:22:35.552Z,1804
2018-09-17T10:23:16.060Z,1792
2018-09-17T10:23:58.215Z,1812
2018-09-17T10:24:39.258Z,1824
2018-09-17T10:25:20.411Z,1844
2018-09-17T10:26:00.584Z,1832
2018-09-17T10:26:41.154Z,1852
2018-09-17T10:27:21.942Z,1836
2018-09-17T10:28:18.408Z,1796
2018-09-17T11:08:50.640Z,1804
2018-09-17T11:11:00.322Z,1792
2018-09-17T11:11:56.782Z,1796
2018-09-17T11:13:11.049Z,1788
2018-09-17T11:14:08.944Z,1792
2018-09-17T11:15:06.634Z,1800
2018-09-17T11:15:59.386Z,1816
2018-09-17T11:16:53.857Z,1812
2018-09-17T11:18:01.991Z,1808
2018-09-17T11:19:02.659Z,1804
2018-09-17T11:48:11.969Z,1744
2018-09-17T11:50:48.095Z,1748
2018-09-17T11:51:39.881Z,1760
2018-09-17T11:52:35.510Z,1764
2018-09-17T11:53:31.391Z,1756
2018-09-17T11:54:26.463Z,1760
2018-09-17T11:55:31.336Z,1756
2018-09-17T11:56:37.929Z,1764
2018-09-17T11:57:40.309Z,1760
2018-09-17T11:58:38.663Z,1744
2018-09-17T11:59:40.664Z,1732
2018-09-17T12:00:55.615Z,1720
2018-09-17T12:02:01.549Z,1732
2018-09-17T12:03:09.647Z,1732
2018-09-17T12:04:56.757Z,1700
2018-09-17T12:05:51.437Z,1704
2018-09-17T12:06:58.996Z,1688
2018-09-17T12:07:52.393Z,1688
2018-09-17T12:08:45.194Z,1680
2018-09-17T12:09:38.326Z,1680
2018-09-17T12:10:31.345Z,1688
2018-09-17T12:11:25.106Z,1664
2018-09-17T12:12:18.729Z,1664
2018-09-17T12:13:12.341Z,1668
2018-09-17T12:14:05.184Z,1664
2018-09-17T12:14:58.241Z,1632
2018-09-17T12:15:50.505Z,1608
2018-09-17T12:16:43.099Z,1592
2018-09-17T12:17:38.808Z,1568
2018-09-17T12:18:31.699Z,1564
2018-09-17T12:19:27.727Z,1564
2018-09-17T12:20:21.488Z,1548
2018-09-17T12:22:57.037Z,1552
2018-09-17T12:23:50.707Z,1568
2018-09-17T12:24:43.435Z,1564
2018-09-17T12:27:11.043Z,1612
2018-09-17T12:28:04.077Z,1620
2018-09-17T12:28:57.527Z,1620
2018-09-17T12:29:51.570Z,1636
2018-09-17T12:30:47.091Z,1660
2018-09-17T12:31:42.588Z,1676
2018-09-17T12:32:45.061Z,1680
2018-09-17T12:33:47.706Z,1680
2018-09-17T12:34:40.052Z,1676
2018-09-17T12:35:37.082Z,1668
2018-09-17T12:36:40.501Z,1684
2018-09-17T12:37:37.716Z,1676
2018-09-17T12:38:32.708Z,1688
2018-09-17T12:39:29.203Z,1704
2018-09-17T12:40:30.576Z,1708
2018-09-17T17:23:31.692Z,172
2018-09-17T17:24:15.573Z,164
2018-09-17T17:24:56.151Z,160
2018-09-17T17:25:38.455Z,152
2018-09-17T17:26:20.322Z,148
2018-09-17T17:27:00.865Z,140
2018-09-17T17:27:41.149Z,136
2018-09-17T17:28:23.906Z,128
2018-09-17T17:29:04.287Z,124
2018-09-17T17:29:45.110Z,116
2018-09-17T17:30:26.194Z,112
2018-09-17T17:31:06.587Z,104
2018-09-17T17:31:47.103Z,100
2018-09-17T17:32:28.520Z,96
2018-09-17T17:33:09.385Z,88
2018-09-17T17:33:50.205Z,80
2018-09-17T17:34:31.779Z,76
2018-09-17T17:35:14.125Z,72
2018-09-17T17:35:54.801Z,68
2018-09-17T17:36:37.061Z,64
2018-09-17T17:37:17.268Z,56
2018-09-17T17:37:59.258Z,56
2018-09-17T17:38:38.867Z,52
2018-09-17T17:39:19.444Z,48
2018-09-17T17:39:59.924Z,44
2018-09-17T17:40:40.397Z,44
2018-09-17T17:41:20.611Z,44
2018-09-17T17:42:01.066Z,36
2018-09-17T17:42:41.463Z,32
2018-09-17T17:43:21.874Z,36
2018-09-17T17:44:03.309Z,32
2018-09-17T17:44:44.323Z,28
2018-09-17T17:45:24.566Z,28
2018-09-17T17:46:05.050Z,28
2018-09-17T17:46:45.400Z,24
2018-09-17T17:47:25.831Z,20
2018-09-17T17:48:06.265Z,20
2018-09-17T17:48:46.607Z,20
2018-09-17T17:49:27.008Z,20
2018-09-17T17:50:07.467Z,16
2018-09-17T17:50:48.247Z,20
2018-09-17T17:51:28.687Z,16
2018-09-17T17:52:09.130Z,16
2018-09-17T17:52:49.484Z,12
2018-09-17T17:53:29.856Z,12
2018-09-17T17:54:10.295Z,8
2018-09-17T17:54:50.761Z,8
2018-09-17T17:55:31.103Z,4
2018-09-17T17:56:11.560Z,4
2018-09-17T17:56:52.019Z,4
2018-09-17T17:57:32.347Z,4
2018-09-17T17:58:12.696Z,4
2018-09-17T17:58:53.114Z,4
2018-09-17T17:59:33.551Z,4
2018-09-17T18:00:14.092Z,0
2018-09-17T18:00:54.420Z,4
2018-09-17T18:01:34.792Z,4
2018-09-17T18:06:38.173Z,0
2018-09-17T18:07:18.204Z,0
2018-09-17T18:07:58.670Z,0
2018-09-17T18:08:39.060Z,0
2018-09-17T18:09:19.603Z,0
2018-09-17T18:09:59.944Z,0
2018-09-17T18:10:40.346Z,0
2018-09-17T18:11:21.291Z,0
2018-09-17T18:12:01.626Z,0
2018-09-17T18:12:42.043Z,0
2018-09-17T18:13:22.543Z,0
2018-09-17T18:14:02.870Z,0
2018-09-17T18:14:43.289Z,0
2018-09-17T18:15:23.836Z,0
2018-09-17T18:16:04.196Z,0
2018-09-17T18:16:46.283Z,0
2018-09-17T18:17:26.632Z,0
2018-09-17T18:18:07.147Z,0
2018-09-17T18:18:47.481Z,0
2018-09-17T18:19:27.885Z,0
2018-09-17T18:20:08.390Z,0
2018-09-17T18:20:48.820Z,0
2018-09-17T18:21:29.233Z,0
2018-09-17T18:22:09.598Z,0
2018-09-17T18:22:50.028Z,0
2018-09-17T18:23:30.457Z,0
2018-09-17T18:24:10.849Z,0
2018-09-17T18:29:32.799Z,0
2018-09-17T19:01:40.955Z,0
2018-09-17T19:02:21.167Z,0
2018-09-17T19:03:01.577Z,0
2018-09-17T19:03:42.031Z,0
2018-09-17T19:04:22.463Z,0
2018-09-17T19:05:02.844Z,0
2018-09-17T19:05:43.282Z,0
2018-09-17T19:06:24.937Z,0
2018-09-17T19:07:05.358Z,0
2018-09-17T19:07:45.734Z,0
2018-09-17T19:08:26.174Z,0
2018-09-17T19:09:06.579Z,0
2018-09-17T19:09:46.978Z,0
2018-09-17T19:10:27.390Z,0
2018-09-17T19:11:08.458Z,0
2018-09-17T19:11:48.889Z,0
2018-09-17T19:12:29.356Z,0
2018-09-17T19:13:09.743Z,0
2018-09-17T19:13:50.379Z,0
2018-09-17T19:14:30.780Z,0
2018-09-17T19:15:11.268Z,0
2018-09-17T19:15:51.659Z,0
2018-09-17T19:16:32.056Z,0
2018-09-17T19:17:12.443Z,0
2018-09-17T19:17:52.926Z,0
2018-09-17T19:18:33.286Z,0
2018-09-17T19:19:13.731Z,0
2018-09-17T19:19:54.221Z,0
2018-09-17T19:20:34.673Z,0
2018-09-17T19:21:14.991Z,0
2018-09-17T19:21:55.644Z,0
2018-09-17T19:22:35.911Z,0
2018-09-17T19:23:16.192Z,0
2018-09-17T19:23:56.751Z,0
2018-09-17T19:24:37.038Z,0
2018-09-17T19:25:17.444Z,0
2018-09-17T19:25:57.951Z,0
2018-09-17T19:26:38.245Z,0
2018-09-17T19:27:18.728Z,0
2018-09-17T19:27:59.155Z,0
2018-09-17T19:28:39.507Z,0
2018-09-17T19:29:19.902Z,0
2018-09-17T19:30:00.379Z,0
2018-09-17T19:30:40.781Z,0
2018-09-17T19:31:21.170Z,0
2018-09-17T19:32:01.557Z,0
2018-09-17T19:32:41.951Z,0
2018-09-17T19:33:22.380Z,0
2018-09-17T19:34:02.831Z,0
2018-09-17T19:34:43.204Z,0
2018-09-17T19:35:23.577Z,0
2018-09-17T19:36:04.002Z,0
2018-09-17T19:36:44.449Z,0
2018-09-17T19:37:24.830Z,0
2018-09-17T19:38:05.253Z,0
2018-09-17T19:38:45.640Z,0
2018-09-17T19:39:26.035Z,0
2018-09-17T19:40:06.437Z,0
2018-09-17T19:40:46.852Z,0
2018-09-17T19:41:27.222Z,0
2018-09-17T19:42:07.702Z,0
2018-09-17T19:42:48.053Z,0
2018-09-17T19:43:28.502Z,0
2018-09-17T19:44:09.024Z,0